Time;durP1;ratioP1;P1;durP2;ratioP2;P2;SDS_P1;SDS_P2;PMS_P1;PMS_P2;Temp;Humidity;BMP_temperature;BMP_pressure;BME280_temperature;BME280_humidity;BME280_pressure;Samples;Min_cycle;Max_cycle;Signal;HPM_P1;HPM_P2
2024/01/03 00:00:20;;;;;;;20.87;19.27;;;;;;;;;;5045125;28;20461;-74
2024/01/03 00:02:47;;;;;;;20.13;19.03;;;;;;;;;;5021398;28;20487;-74
2024/01/03 00:05:14;;;;;;;19.17;18.10;;;;;;;;;;5037022;28;20507;-74
2024/01/03 00:07:42;;;;;;;19.20;18.23;;;;;;;;;;5028331;28;20560;-75
2024/01/03 00:10:20;;;;;;;19.37;18.23;;;;;;;;;;5028850;28;20487;-73
2024/01/03 00:12:47;;;;;;;20.00;19.00;;;;;;;;;;5037014;28;20916;-74
2024/01/03 00:15:20;;;;;;;21.00;19.80;;;;;;;;;;5028470;28;20479;-74
2024/01/03 00:17:47;;;;;;;20.43;19.33;;;;;;;;;;5025107;28;20863;-74
2024/01/03 00:20:14;;;;;;;19.60;18.40;;;;;;;;;;5033383;28;20892;-75
2024/01/03 00:22:41;;;;;;;19.23;18.20;;;;;;;;;;5021533;28;20483;-74
2024/01/03 00:25:11;;;;;;;18.53;17.30;;;;;;;;;;5029279;28;20454;-74
2024/01/03 00:27:38;;;;;;;19.10;18.20;;;;;;;;;;5025630;28;20545;-74
2024/01/03 00:30:07;;;;;;;19.60;18.30;;;;;;;;;;5028782;28;20697;-74
2024/01/03 00:32:35;;;;;;;18.37;17.43;;;;;;;;;;5021058;28;20455;-74
2024/01/03 00:35:02;;;;;;;18.57;17.77;;;;;;;;;;5030817;28;20494;-75
2024/01/03 00:37:29;;;;;;;19.70;18.43;;;;;;;;;;5028474;28;20490;-74
2024/01/03 00:39:57;;;;;;;17.90;17.10;;;;;;;;;;5029246;28;20466;-73
2024/01/03 00:42:26;;;;;;;19.77;18.30;;;;;;;;;;5021484;28;20501;-74
2024/01/03 00:44:53;;;;;;;19.07;17.97;;;;;;;;;;5031839;28;20454;-74
2024/01/03 00:47:22;;;;;;;17.77;16.90;;;;;;;;;;5032660;28;21582;-74
2024/01/03 00:49:49;;;;;;;20.53;19.13;;;;;;;;;;5026448;28;20466;-74
2024/01/03 00:52:17;;;;;;;18.50;17.50;;;;;;;;;;5028664;28;20510;-74
2024/01/03 00:54:45;;;;;;;19.10;17.70;;;;;;;;;;5027563;28;20487;-75
2024/01/03 00:57:13;;;;;;;18.60;17.40;;;;;;;;;;5027052;28;20567;-75
2024/01/03 00:59:42;;;;;;;19.27;18.07;;;;;;;;;;5031846;28;20878;-74
2024/01/03 01:02:09;;;;;;;17.43;16.47;;;;;;;;;;5029799;28;20578;-74
2024/01/03 01:04:39;;;;;;;20.10;18.50;;;;;;;;;;5030119;28;20460;-75
2024/01/03 01:07:06;;;;;;;19.77;18.47;;;;;;;;;;5035629;28;20475;-74
2024/01/03 01:09:33;;;;;;;19.50;18.30;;;;;;;;;;5022273;28;20546;-74
2024/01/03 01:12:00;;;;;;;19.13;18.00;;;;;;;;;;5021336;28;20940;-74
2024/01/03 01:14:26;;;;;;;18.30;17.20;;;;;;;;;;5028407;28;21349;-74
2024/01/03 01:16:55;;;;;;;18.97;17.77;;;;;;;;;;5031793;28;20624;-74
2024/01/03 01:19:22;;;;;;;18.37;17.30;;;;;;;;;;5027627;28;20471;-73
2024/01/03 01:21:49;;;;;;;19.00;17.80;;;;;;;;;;5036562;28;20437;-74
2024/01/03 01:24:16;;;;;;;18.40;17.43;;;;;;;;;;5022056;28;20472;-75
2024/01/03 01:26:43;;;;;;;19.27;18.07;;;;;;;;;;5027880;28;20473;-74
2024/01/03 01:29:10;;;;;;;19.57;18.10;;;;;;;;;;5030918;28;20478;-74
2024/01/03 01:31:36;;;;;;;18.90;17.70;;;;;;;;;;5025314;28;20555;-73
2024/01/03 01:34:05;;;;;;;18.90;17.80;;;;;;;;;;5024862;28;20501;-73
2024/01/03 01:39:08;;;;;;;17.60;16.60;;;;;;;;;;5219300;22;20968;-74
2024/01/03 01:41:35;;;;;;;17.90;16.70;;;;;;;;;;4999372;28;20549;-74
2024/01/03 01:44:01;;;;;;;19.07;17.97;;;;;;;;;;5003995;28;20452;-74
2024/01/03 01:46:29;;;;;;;19.63;18.50;;;;;;;;;;4995810;28;20501;-74
2024/01/03 01:48:56;;;;;;;18.00;17.07;;;;;;;;;;4984902;28;20742;-73
2024/01/03 01:51:24;;;;;;;18.00;17.07;;;;;;;;;;4983803;28;20457;-74
2024/01/03 01:53:51;;;;;;;18.43;17.40;;;;;;;;;;4987175;28;20507;-74
2024/01/03 01:56:19;;;;;;;17.77;16.87;;;;;;;;;;4984097;28;20493;-73
2024/01/03 01:58:46;;;;;;;19.13;17.90;;;;;;;;;;4984196;28;21047;-74
2024/01/03 02:01:14;;;;;;;18.70;17.57;;;;;;;;;;4982548;28;20453;-73
2024/01/03 02:03:41;;;;;;;19.23;17.40;;;;;;;;;;4984366;28;20993;-74
2024/01/03 02:06:10;;;;;;;18.33;17.23;;;;;;;;;;4982152;28;20543;-74
2024/01/03 02:08:38;;;;;;;18.80;17.70;;;;;;;;;;4987910;28;20472;-74
2024/01/03 02:11:05;;;;;;;17.97;16.97;;;;;;;;;;4987806;28;20453;-74
2024/01/03 02:13:32;;;;;;;17.50;16.60;;;;;;;;;;4980632;28;20934;-74
2024/01/03 02:15:59;;;;;;;17.67;16.77;;;;;;;;;;4982829;28;21001;-74
2024/01/03 02:18:27;;;;;;;17.73;16.90;;;;;;;;;;4988132;28;20478;-74
2024/01/03 02:20:55;;;;;;;17.93;16.63;;;;;;;;;;4987227;28;20489;-74
2024/01/03 02:23:23;;;;;;;17.20;16.10;;;;;;;;;;4983022;28;20466;-74
2024/01/03 02:25:50;;;;;;;18.47;17.10;;;;;;;;;;4986481;28;20457;-73
2024/01/03 02:28:17;;;;;;;19.83;18.53;;;;;;;;;;4986792;28;20853;-74
2024/01/03 02:30:45;;;;;;;17.73;16.63;;;;;;;;;;4979891;28;20449;-74
2024/01/03 02:33:13;;;;;;;18.40;17.40;;;;;;;;;;4990800;28;20540;-73
2024/01/03 02:35:40;;;;;;;17.20;16.23;;;;;;;;;;4982947;28;20889;-73
2024/01/03 02:38:07;;;;;;;18.57;16.97;;;;;;;;;;4989935;28;20853;-73
2024/01/03 02:40:35;;;;;;;17.97;16.13;;;;;;;;;;4981264;28;20481;-73
2024/01/03 02:43:02;;;;;;;17.60;16.50;;;;;;;;;;4981006;28;20509;-73
2024/01/03 02:45:29;;;;;;;18.20;16.80;;;;;;;;;;4985843;28;20929;-73
2024/01/03 02:47:56;;;;;;;18.43;17.23;;;;;;;;;;4986687;28;20557;-73
2024/01/03 02:50:23;;;;;;;18.37;17.20;;;;;;;;;;4988748;28;20612;-75
2024/01/03 02:52:50;;;;;;;18.77;17.57;;;;;;;;;;4985834;28;20481;-72
2024/01/03 02:55:17;;;;;;;18.70;17.67;;;;;;;;;;4987942;28;20461;-73
2024/01/03 02:57:45;;;;;;;19.27;18.17;;;;;;;;;;4982113;28;20512;-74
2024/01/03 03:00:13;;;;;;;19.40;17.90;;;;;;;;;;4984346;28;21004;-73
2024/01/03 03:02:40;;;;;;;18.83;17.50;;;;;;;;;;4987751;28;20461;-73
2024/01/03 03:05:07;;;;;;;18.20;17.10;;;;;;;;;;4989792;28;20500;-73
2024/01/03 03:07:34;;;;;;;20.20;18.90;;;;;;;;;;5513399;22;20559;-73
2024/01/03 03:10:01;;;;;;;18.67;17.33;;;;;;;;;;5017447;28;20460;-74
2024/01/03 03:12:28;;;;;;;19.33;18.13;;;;;;;;;;5020192;28;20452;-73
2024/01/03 03:14:56;;;;;;;19.03;17.40;;;;;;;;;;5011451;28;20468;-73
2024/01/03 03:17:23;;;;;;;16.77;15.73;;;;;;;;;;5002618;28;20895;-73
2024/01/03 03:19:50;;;;;;;18.07;16.57;;;;;;;;;;5001496;28;22339;-73
2024/01/03 03:22:17;;;;;;;18.37;17.10;;;;;;;;;;5006459;28;20933;-73
2024/01/03 03:24:44;;;;;;;17.30;16.40;;;;;;;;;;5004152;28;21187;-73
2024/01/03 03:27:11;;;;;;;17.10;16.10;;;;;;;;;;5002255;28;20472;-73
2024/01/03 03:29:38;;;;;;;16.67;15.60;;;;;;;;;;4997527;28;20542;-72
2024/01/03 03:32:07;;;;;;;17.67;16.70;;;;;;;;;;5001165;28;20464;-73
2024/01/03 03:34:34;;;;;;;17.43;16.30;;;;;;;;;;5006575;28;20472;-74
2024/01/03 03:39:32;;;;;;;17.30;16.20;;;;;;;;;;4984233;28;20524;-74
2024/01/03 03:41:59;;;;;;;17.47;16.67;;;;;;;;;;4985373;28;20455;-73
2024/01/03 03:44:26;;;;;;;17.27;15.87;;;;;;;;;;4988399;28;20486;-73
2024/01/03 03:46:53;;;;;;;16.30;15.50;;;;;;;;;;4989063;28;20465;-72
2024/01/03 03:49:22;;;;;;;16.40;15.60;;;;;;;;;;4987439;28;20482;-74
2024/01/03 03:51:49;;;;;;;17.70;16.50;;;;;;;;;;4987017;28;20489;-73
2024/01/03 03:54:16;;;;;;;17.43;16.20;;;;;;;;;;4987105;28;20453;-73
2024/01/03 03:56:43;;;;;;;18.00;16.70;;;;;;;;;;4982407;28;20521;-73
2024/01/03 03:59:10;;;;;;;16.47;15.60;;;;;;;;;;4985929;28;20436;-73
2024/01/03 04:01:37;;;;;;;18.03;16.73;;;;;;;;;;4986867;28;20492;-72
2024/01/03 04:04:04;;;;;;;18.53;16.80;;;;;;;;;;4988830;28;20449;-73
2024/01/03 04:06:32;;;;;;;16.77;16.07;;;;;;;;;;4987970;28;20496;-76
2024/01/03 04:08:59;;;;;;;18.40;17.17;;;;;;;;;;4990607;28;20519;-73
2024/01/03 04:11:26;;;;;;;19.23;17.20;;;;;;;;;;4992949;28;20512;-72
2024/01/03 04:13:53;;;;;;;21.50;19.90;;;;;;;;;;4993353;28;20520;-73
2024/01/03 04:16:20;;;;;;;17.93;16.77;;;;;;;;;;4986734;28;20592;-73
2024/01/03 04:18:47;;;;;;;17.93;16.83;;;;;;;;;;4979619;28;20457;-73
2024/01/03 04:21:14;;;;;;;17.70;16.77;;;;;;;;;;4992802;28;20529;-73
2024/01/03 04:23:42;;;;;;;17.77;16.70;;;;;;;;;;4991874;28;20453;-73
2024/01/03 04:26:09;;;;;;;17.87;16.77;;;;;;;;;;4987112;28;20485;-73
2024/01/03 04:28:37;;;;;;;17.97;17.07;;;;;;;;;;4984834;28;20482;-73
2024/01/03 04:31:04;;;;;;;17.20;16.30;;;;;;;;;;4985197;28;20449;-73
2024/01/03 04:33:31;;;;;;;17.27;16.00;;;;;;;;;;4986168;28;20536;-73
2024/01/03 04:35:58;;;;;;;17.73;16.73;;;;;;;;;;4988095;28;20524;-73
2024/01/03 04:38:24;;;;;;;18.03;16.80;;;;;;;;;;4999145;28;20508;-73
2024/01/03 04:40:53;;;;;;;17.07;15.97;;;;;;;;;;5006507;28;20449;-73
2024/01/03 04:43:20;;;;;;;18.53;17.27;;;;;;;;;;5008196;28;20519;-73
2024/01/03 04:45:47;;;;;;;17.70;16.33;;;;;;;;;;5010052;28;20507;-72
2024/01/03 04:48:14;;;;;;;17.20;16.30;;;;;;;;;;5009674;28;21361;-73
2024/01/03 04:50:41;;;;;;;17.77;15.80;;;;;;;;;;4995827;28;20488;-73
2024/01/03 04:53:08;;;;;;;17.57;16.57;;;;;;;;;;5007919;28;20964;-73
2024/01/03 04:55:35;;;;;;;17.67;16.50;;;;;;;;;;5009415;28;20456;-73
2024/01/03 04:58:04;;;;;;;17.30;16.50;;;;;;;;;;5006209;28;20500;-74
2024/01/03 05:00:33;;;;;;;17.57;16.57;;;;;;;;;;5006441;28;20540;-73
2024/01/03 05:03:00;;;;;;;19.20;17.80;;;;;;;;;;5008380;28;21239;-73
2024/01/03 05:05:27;;;;;;;18.80;17.30;;;;;;;;;;5000685;28;20958;-73
2024/01/03 05:07:56;;;;;;;17.50;16.40;;;;;;;;;;5516749;22;20915;-74
2024/01/03 05:10:23;;;;;;;17.43;16.53;;;;;;;;;;5009321;28;20460;-74
2024/01/03 05:12:50;;;;;;;18.33;17.17;;;;;;;;;;4996566;28;20559;-73
2024/01/03 05:15:19;;;;;;;19.73;17.93;;;;;;;;;;5002810;28;20541;-73
2024/01/03 05:17:46;;;;;;;16.73;15.93;;;;;;;;;;5010174;28;20503;-73
2024/01/03 05:20:13;;;;;;;16.77;16.07;;;;;;;;;;5007754;28;21014;-73
2024/01/03 05:22:40;;;;;;;17.57;16.47;;;;;;;;;;5010294;28;20464;-73
2024/01/03 05:25:07;;;;;;;16.40;15.70;;;;;;;;;;5011407;28;20456;-73
2024/01/03 05:27:34;;;;;;;18.43;17.17;;;;;;;;;;5016301;28;20472;-74
2024/01/03 05:30:01;;;;;;;18.10;16.93;;;;;;;;;;5012890;28;21521;-74
2024/01/03 05:32:30;;;;;;;18.10;16.90;;;;;;;;;;5026651;28;20793;-73
2024/01/03 05:34:57;;;;;;;19.23;17.77;;;;;;;;;;5009377;28;20938;-73
2024/01/03 05:37:24;;;;;;;18.57;17.40;;;;;;;;;;5011159;28;20524;-73
2024/01/03 05:39:51;;;;;;;18.13;16.73;;;;;;;;;;5009884;28;20487;-74
2024/01/03 05:42:18;;;;;;;21.97;20.17;;;;;;;;;;5004882;28;20488;-73
2024/01/03 05:44:45;;;;;;;19.27;18.03;;;;;;;;;;5005171;28;20876;-73
2024/01/03 05:47:12;;;;;;;19.00;17.43;;;;;;;;;;5014606;28;20465;-73
2024/01/03 05:49:41;;;;;;;17.67;16.67;;;;;;;;;;5014942;28;20475;-73
2024/01/03 05:52:08;;;;;;;18.07;17.00;;;;;;;;;;5009670;28;20513;-73
2024/01/03 05:54:35;;;;;;;19.27;17.47;;;;;;;;;;5007296;28;20460;-73
2024/01/03 05:57:02;;;;;;;19.33;18.33;;;;;;;;;;5023891;28;20516;-73
2024/01/03 05:59:29;;;;;;;18.70;17.40;;;;;;;;;;5020552;28;20461;-74
2024/01/03 06:01:56;;;;;;;19.67;18.30;;;;;;;;;;4994970;28;20528;-75
2024/01/03 06:04:23;;;;;;;17.60;16.50;;;;;;;;;;4991223;28;20449;-73
2024/01/03 06:06:52;;;;;;;17.90;17.00;;;;;;;;;;4990892;28;20973;-73
2024/01/03 06:09:19;;;;;;;19.67;18.10;;;;;;;;;;4990792;28;20827;-73
2024/01/03 06:11:46;;;;;;;17.93;16.90;;;;;;;;;;4990186;28;21224;-73
2024/01/03 06:14:13;;;;;;;18.30;16.90;;;;;;;;;;4990871;28;20870;-73
2024/01/03 06:16:40;;;;;;;19.10;17.43;;;;;;;;;;4990559;28;20585;-73
2024/01/03 06:19:07;;;;;;;18.07;17.07;;;;;;;;;;4990990;28;20453;-73
2024/01/03 06:21:33;;;;;;;18.30;17.50;;;;;;;;;;5008167;28;20482;-73
2024/01/03 06:24:02;;;;;;;19.30;18.20;;;;;;;;;;5030497;28;20447;-73
2024/01/03 06:26:30;;;;;;;20.17;18.53;;;;;;;;;;5030199;28;20459;-73
2024/01/03 06:28:57;;;;;;;18.63;17.53;;;;;;;;;;5030394;28;20498;-73
2024/01/03 06:31:24;;;;;;;18.03;17.13;;;;;;;;;;5029613;28;20812;-73
2024/01/03 06:33:51;;;;;;;18.77;17.57;;;;;;;;;;5030173;28;20448;-73
2024/01/03 06:36:18;;;;;;;18.83;17.60;;;;;;;;;;5014625;28;20507;-74
2024/01/03 06:38:46;;;;;;;19.73;18.33;;;;;;;;;;5010149;28;20551;-73
2024/01/03 06:41:14;;;;;;;19.33;17.80;;;;;;;;;;4996611;28;20934;-73
2024/01/03 06:43:41;;;;;;;19.57;17.90;;;;;;;;;;4990567;28;21068;-73
2024/01/03 06:46:08;;;;;;;17.93;16.93;;;;;;;;;;4990482;28;20559;-73
2024/01/03 06:48:35;;;;;;;18.67;17.50;;;;;;;;;;4990901;28;20450;-74
2024/01/03 06:51:03;;;;;;;19.00;17.63;;;;;;;;;;4995207;28;20461;-73
2024/01/03 06:53:31;;;;;;;18.23;17.30;;;;;;;;;;5006898;28;20496;-73
2024/01/03 06:55:58;;;;;;;17.63;16.83;;;;;;;;;;5009921;28;20456;-73
2024/01/03 06:58:27;;;;;;;18.50;17.13;;;;;;;;;;5009758;28;20507;-73
2024/01/03 07:00:54;;;;;;;18.87;17.70;;;;;;;;;;5002011;28;20478;-73
2024/01/03 07:03:20;;;;;;;19.87;18.40;;;;;;;;;;4992740;28;20469;-73
2024/01/03 07:05:47;;;;;;;19.53;18.40;;;;;;;;;;4990682;28;20449;-74
2024/01/03 07:08:14;;;;;;;18.97;18.07;;;;;;;;;;5000397;28;20481;-73
2024/01/03 07:10:41;;;;;;;18.50;17.30;;;;;;;;;;4997332;28;21038;-73
2024/01/03 07:13:09;;;;;;;18.40;17.40;;;;;;;;;;5014186;28;20423;-73
2024/01/03 07:15:37;;;;;;;17.83;16.80;;;;;;;;;;5009368;28;21054;-73
2024/01/03 07:18:04;;;;;;;18.60;17.60;;;;;;;;;;5013902;28;20578;-73
2024/01/03 07:20:31;;;;;;;18.03;17.20;;;;;;;;;;5013125;28;20461;-74
2024/01/03 07:22:58;;;;;;;17.53;16.37;;;;;;;;;;5013533;28;20498;-74
2024/01/03 07:25:25;;;;;;;18.17;17.37;;;;;;;;;;5013425;28;20491;-73
2024/01/03 07:27:52;;;;;;;17.57;16.67;;;;;;;;;;5032265;28;20486;-73
2024/01/03 07:30:19;;;;;;;18.30;17.10;;;;;;;;;;5033652;28;20609;-74
2024/01/03 07:32:47;;;;;;;18.90;17.53;;;;;;;;;;5032867;28;20501;-74
2024/01/03 07:35:16;;;;;;;18.90;17.87;;;;;;;;;;5033525;28;20490;-73
2024/01/03 07:37:43;;;;;;;19.27;17.93;;;;;;;;;;5033017;28;21254;-72
2024/01/03 07:40:10;;;;;;;17.67;16.83;;;;;;;;;;5033100;28;20832;-72
2024/01/03 07:42:37;;;;;;;17.90;17.07;;;;;;;;;;5032152;28;20951;-73
2024/01/03 07:45:04;;;;;;;18.23;17.27;;;;;;;;;;5030371;28;20510;-73
2024/01/03 07:47:31;;;;;;;17.50;16.70;;;;;;;;;;5013064;28;21038;-72
2024/01/03 07:50:00;;;;;;;17.27;16.57;;;;;;;;;;5013157;28;20475;-72
2024/01/03 07:52:27;;;;;;;17.60;16.70;;;;;;;;;;5012829;28;20448;-73
2024/01/03 07:54:54;;;;;;;16.80;16.10;;;;;;;;;;5013089;28;20499;-72
2024/01/03 07:57:21;;;;;;;17.47;16.33;;;;;;;;;;4995255;28;21070;-73
2024/01/03 07:59:48;;;;;;;18.47;17.17;;;;;;;;;;4998460;28;20554;-73
2024/01/03 08:02:15;;;;;;;17.70;16.83;;;;;;;;;;5012079;28;20464;-73
2024/01/03 08:04:42;;;;;;;17.77;16.93;;;;;;;;;;5011762;28;20464;-73
2024/01/03 08:07:10;;;;;;;19.10;17.47;;;;;;;;;;5012179;28;20477;-75
2024/01/03 08:09:38;;;;;;;17.67;16.87;;;;;;;;;;5012897;28;20518;-73
2024/01/03 08:12:08;;;;;;;18.17;17.10;;;;;;;;;;5012186;28;20956;-73
2024/01/03 08:14:36;;;;;;;18.13;17.13;;;;;;;;;;5031800;28;20483;-73
2024/01/03 08:17:02;;;;;;;17.83;16.90;;;;;;;;;;5031978;28;20582;-73
2024/01/03 08:19:29;;;;;;;18.23;17.40;;;;;;;;;;5031262;28;20452;-74
2024/01/03 08:21:56;;;;;;;32.07;17.73;;;;;;;;;;5031720;28;21004;-73
2024/01/03 08:24:26;;;;;;;18.10;17.20;;;;;;;;;;5031435;28;20987;-75
2024/01/03 08:26:53;;;;;;;18.37;17.23;;;;;;;;;;5020171;28;20575;-76
2024/01/03 08:29:20;;;;;;;18.63;17.33;;;;;;;;;;4997272;28;20508;-75
2024/01/03 08:31:48;;;;;;;18.90;17.70;;;;;;;;;;4994592;28;20478;-74
2024/01/03 08:34:15;;;;;;;17.10;16.30;;;;;;;;;;4993215;28;20540;-75
2024/01/03 08:36:43;;;;;;;18.27;17.27;;;;;;;;;;4999844;28;20496;-74
2024/01/03 08:39:10;;;;;;;18.70;17.50;;;;;;;;;;5012445;28;20567;-76
2024/01/03 08:41:38;;;;;;;18.60;17.47;;;;;;;;;;5011841;28;20452;-74
2024/01/03 08:44:06;;;;;;;19.87;18.57;;;;;;;;;;5012267;28;20461;-74
2024/01/03 08:46:34;;;;;;;17.37;16.60;;;;;;;;;;5011905;28;20517;-74
2024/01/03 08:49:02;;;;;;;18.07;17.27;;;;;;;;;;5012288;28;20452;-74
2024/01/03 08:51:29;;;;;;;19.10;18.20;;;;;;;;;;5011664;28;20452;-74
2024/01/03 08:53:56;;;;;;;19.87;18.83;;;;;;;;;;5012092;28;20456;-73
2024/01/03 08:56:23;;;;;;;23.40;22.20;;;;;;;;;;5011767;28;20484;-74
2024/01/03 08:58:52;;;;;;;25.10;23.60;;;;;;;;;;5012092;28;20472;-74
2024/01/03 09:01:19;;;;;;;29.17;27.77;;;;;;;;;;5023919;28;20460;-74
2024/01/03 09:03:46;;;;;;;33.97;31.47;;;;;;;;;;5031901;28;20456;-74
2024/01/03 09:06:14;;;;;;;34.97;32.87;;;;;;;;;;5031811;28;20443;-74
2024/01/03 09:08:41;;;;;;;36.93;34.57;;;;;;;;;;5031181;28;20820;-74
2024/01/03 09:11:12;;;;;;;37.20;34.80;;;;;;;;;;5031113;28;21413;-74
2024/01/03 09:13:39;;;;;;;43.47;40.80;;;;;;;;;;5031806;28;20467;-74
2024/01/03 09:16:09;;;;;;;44.77;42.37;;;;;;;;;;5031230;28;20818;-74
2024/01/03 09:18:36;;;;;;;45.97;43.57;;;;;;;;;;5031435;28;20491;-74
2024/01/03 09:21:04;;;;;;;48.27;45.57;;;;;;;;;;5030669;28;20443;-74
2024/01/03 09:23:30;;;;;;;51.37;48.77;;;;;;;;;;5031404;28;20451;-75
2024/01/03 09:25:58;;;;;;;56.73;53.30;;;;;;;;;;5031173;28;20513;-76
2024/01/03 09:28:25;;;;;;;66.13;62.00;;;;;;;;;;5030957;28;20467;-76
2024/01/03 09:30:52;;;;;;;68.80;64.73;;;;;;;;;;4999963;28;20494;-77
2024/01/03 09:33:20;;;;;;;74.77;69.77;;;;;;;;;;4991863;28;20803;-76
2024/01/03 09:35:47;;;;;;;41.53;37.63;;;;;;;;;;4991952;28;20505;-75
2024/01/03 09:38:15;;;;;;;35.30;33.00;;;;;;;;;;4991392;28;21145;-76
2024/01/03 09:40:43;;;;;;;28.60;26.80;;;;;;;;;;4990580;28;20463;-76
2024/01/03 09:43:10;;;;;;;28.73;26.97;;;;;;;;;;4991836;28;20461;-78
2024/01/03 09:45:38;;;;;;;25.60;24.00;;;;;;;;;;4992039;28;20453;-76
2024/01/03 09:48:05;;;;;;;26.23;24.63;;;;;;;;;;4991461;28;20480;-77
2024/01/03 09:50:34;;;;;;;25.90;24.40;;;;;;;;;;4991066;28;20809;-77
2024/01/03 09:53:01;;;;;;;27.57;25.83;;;;;;;;;;4991615;28;20446;-76
2024/01/03 09:55:29;;;;;;;29.00;27.10;;;;;;;;;;4991106;28;21275;-76
2024/01/03 09:57:56;;;;;;;27.20;25.57;;;;;;;;;;4990949;28;20842;-77
2024/01/03 10:00:23;;;;;;;27.00;25.40;;;;;;;;;;4991154;28;20782;-77
2024/01/03 10:02:51;;;;;;;28.87;27.07;;;;;;;;;;4990817;28;20859;-76
2024/01/03 10:05:21;;;;;;;28.97;27.17;;;;;;;;;;5008650;28;20514;-77
2024/01/03 10:07:49;;;;;;;28.03;26.33;;;;;;;;;;5010562;28;20472;-77
2024/01/03 10:10:29;;;;;;;29.53;27.80;;;;;;;;;;5010699;28;20440;-76
2024/01/03 10:12:56;;;;;;;30.60;28.70;;;;;;;;;;5010868;28;20433;-76
2024/01/03 10:15:23;;;;;;;27.43;25.73;;;;;;;;;;5010828;28;20456;-76
2024/01/03 10:17:50;;;;;;;28.30;26.60;;;;;;;;;;5010448;28;20516;-77
2024/01/03 10:20:25;;;;;;;28.00;26.30;;;;;;;;;;5010506;28;20456;-76
2024/01/03 10:23:04;;;;;;;27.27;25.77;;;;;;;;;;5010276;28;20455;-75
2024/01/03 10:25:31;;;;;;;27.50;25.80;;;;;;;;;;5010564;28;20432;-77
2024/01/03 10:28:00;;;;;;;27.10;25.40;;;;;;;;;;5010425;28;21149;-76
2024/01/03 10:30:27;;;;;;;27.40;25.47;;;;;;;;;;5010238;28;20448;-77
2024/01/03 10:32:58;;;;;;;27.80;26.10;;;;;;;;;;5010701;28;20448;-77
2024/01/03 10:35:27;;;;;;;26.20;24.60;;;;;;;;;;5010634;28;20458;-76
2024/01/03 10:37:55;;;;;;;26.67;24.97;;;;;;;;;;5009730;28;20484;-76
2024/01/03 10:40:23;;;;;;;27.23;25.50;;;;;;;;;;4991022;28;20458;-77
2024/01/03 10:42:51;;;;;;;29.87;27.87;;;;;;;;;;4990171;28;20922;-76
2024/01/03 10:45:18;;;;;;;28.57;26.77;;;;;;;;;;4990644;28;20925;-76
2024/01/03 10:47:45;;;;;;;30.97;28.53;;;;;;;;;;4999588;28;21110;-76
2024/01/03 10:50:13;;;;;;;30.30;28.20;;;;;;;;;;5010300;28;20499;-76
2024/01/03 10:52:42;;;;;;;29.87;27.93;;;;;;;;;;5010048;28;20448;-76
2024/01/03 10:55:10;;;;;;;32.23;30.30;;;;;;;;;;5010422;28;20480;-77
2024/01/03 10:57:41;;;;;;;34.57;32.27;;;;;;;;;;5010380;28;20464;-76
2024/01/03 11:00:12;;;;;;;36.43;33.83;;;;;;;;;;5010509;28;20512;-77
2024/01/03 11:02:43;;;;;;;36.97;34.67;;;;;;;;;;5009863;28;20441;-76
2024/01/03 11:05:14;;;;;;;40.60;38.20;;;;;;;;;;5010452;28;20440;-76
2024/01/03 11:07:44;;;;;;;38.60;36.30;;;;;;;;;;5010097;28;20476;-76
2024/01/03 11:10:11;;;;;;;41.87;39.37;;;;;;;;;;5010541;28;20437;-77
2024/01/03 11:12:40;;;;;;;43.00;39.90;;;;;;;;;;5009872;28;20453;-77
2024/01/03 11:15:23;;;;;;;45.47;42.77;;;;;;;;;;5011255;28;20507;-76
2024/01/03 11:17:50;;;;;;;47.57;44.33;;;;;;;;;;5009983;28;20484;-77
2024/01/03 11:20:27;;;;;;;47.10;43.80;;;;;;;;;;5010244;28;20449;-75
2024/01/03 11:22:57;;;;;;;49.87;46.27;;;;;;;;;;5012691;28;20486;-84
2024/01/03 11:25:43;;;;;;;49.13;45.87;;;;;;;;;;5013150;28;20485;-83
2024/01/03 11:28:29;;;;;;;48.87;45.23;;;;;;;;;;5003134;28;20484;-77
2024/01/03 11:30:58;;;;;;;48.87;46.00;;;;;;;;;;5000225;28;21093;-84
2024/01/03 11:33:24;;;;;;;49.37;46.37;;;;;;;;;;5008327;28;20472;-76
2024/01/03 11:35:52;;;;;;;46.77;44.03;;;;;;;;;;5008875;28;20463;-76
2024/01/03 11:38:33;;;;;;;49.57;46.50;;;;;;;;;;4998265;28;21037;-75
2024/01/03 11:41:00;;;;;;;49.63;46.33;;;;;;;;;;5009038;28;20506;-76
2024/01/03 11:43:27;;;;;;;50.07;46.60;;;;;;;;;;5009480;28;20912;-75
2024/01/03 11:46:07;;;;;;;46.80;44.10;;;;;;;;;;5009901;28;20441;-76
2024/01/03 11:48:34;;;;;;;44.13;41.47;;;;;;;;;;5009985;28;20421;-75
2024/01/03 11:51:01;;;;;;;43.03;40.47;;;;;;;;;;5009354;28;20440;-76
2024/01/03 11:53:28;;;;;;;39.43;37.43;;;;;;;;;;5009616;28;20449;-78
2024/01/03 11:55:55;;;;;;;39.47;37.27;;;;;;;;;;5012065;28;20440;-75
2024/01/03 11:58:23;;;;;;;32.20;30.33;;;;;;;;;;5012755;28;20528;-75
2024/01/03 12:00:50;;;;;;;30.60;28.80;;;;;;;;;;5012733;28;21060;-76
2024/01/03 12:03:26;;;;;;;28.80;27.40;;;;;;;;;;5013233;28;20452;-75
2024/01/03 12:05:53;;;;;;;27.27;25.97;;;;;;;;;;5013851;28;20789;-81
2024/01/03 12:08:21;;;;;;;27.83;26.23;;;;;;;;;;5015923;28;20997;-81
2024/01/03 12:10:49;;;;;;;29.63;27.80;;;;;;;;;;4998218;28;20458;-75
2024/01/03 12:13:16;;;;;;;28.83;27.27;;;;;;;;;;4993450;28;20453;-76
2024/01/03 12:15:43;;;;;;;28.23;26.27;;;;;;;;;;4993246;28;20424;-76
2024/01/03 12:18:10;;;;;;;29.00;27.40;;;;;;;;;;4992304;28;20544;-76
2024/01/03 12:20:39;;;;;;;30.70;28.30;;;;;;;;;;4992623;28;20449;-76
2024/01/03 12:23:09;;;;;;;29.90;27.80;;;;;;;;;;4993038;28;20428;-76
2024/01/03 12:25:36;;;;;;;31.73;28.97;;;;;;;;;;4992883;28;20961;-76
2024/01/03 12:28:04;;;;;;;29.67;27.77;;;;;;;;;;4992966;28;20516;-76
2024/01/03 12:30:31;;;;;;;27.60;25.97;;;;;;;;;;4992531;28;20453;-76
2024/01/03 12:33:07;;;;;;;28.90;26.90;;;;;;;;;;5015977;28;20479;-75
2024/01/03 12:35:35;;;;;;;27.47;25.53;;;;;;;;;;5015173;28;20448;-76
2024/01/03 12:38:03;;;;;;;30.73;28.67;;;;;;;;;;5000069;28;21082;-75
2024/01/03 12:40:30;;;;;;;29.50;27.50;;;;;;;;;;4992713;28;20463;-76
2024/01/03 12:42:57;;;;;;;28.00;25.43;;;;;;;;;;4992576;28;20496;-75
2024/01/03 12:45:24;;;;;;;32.07;29.97;;;;;;;;;;4992931;28;20802;-76
2024/01/03 12:47:51;;;;;;;31.50;29.03;;;;;;;;;;4992362;28;21036;-76
2024/01/03 12:50:18;;;;;;;29.97;28.00;;;;;;;;;;4992805;28;20416;-76
2024/01/03 12:52:45;;;;;;;24.90;23.70;;;;;;;;;;4992096;28;20511;-76
2024/01/03 12:55:14;;;;;;;26.40;24.90;;;;;;;;;;4992733;28;20510;-76
2024/01/03 12:57:41;;;;;;;25.90;24.43;;;;;;;;;;4992210;28;20994;-76
2024/01/03 13:00:10;;;;;;;28.27;26.60;;;;;;;;;;4992543;28;20826;-75
2024/01/03 13:02:37;;;;;;;27.83;26.27;;;;;;;;;;4991619;28;20963;-75
2024/01/03 13:05:04;;;;;;;26.83;25.30;;;;;;;;;;4991886;28;20899;-75
2024/01/03 13:07:31;;;;;;;26.93;25.73;;;;;;;;;;4992008;28;20563;-76
2024/01/03 13:09:58;;;;;;;24.87;23.33;;;;;;;;;;4992724;28;20445;-75
2024/01/03 13:12:26;;;;;;;25.57;23.90;;;;;;;;;;4992025;28;20486;-76
2024/01/03 13:14:53;;;;;;;24.93;23.53;;;;;;;;;;4992397;28;20808;-75
2024/01/03 13:17:22;;;;;;;23.83;22.67;;;;;;;;;;4991972;28;20996;-77
2024/01/03 13:19:49;;;;;;;24.73;23.13;;;;;;;;;;4992542;28;20561;-75
2024/01/03 13:22:17;;;;;;;23.50;21.73;;;;;;;;;;4991906;28;20459;-76
2024/01/03 13:24:44;;;;;;;21.83;20.73;;;;;;;;;;5000633;28;20504;-75
2024/01/03 13:27:11;;;;;;;22.97;21.67;;;;;;;;;;4998779;28;20476;-83
2024/01/03 13:29:39;;;;;;;23.47;21.83;;;;;;;;;;5003266;28;20928;-81
2024/01/03 13:32:07;;;;;;;20.90;19.40;;;;;;;;;;5013595;28;20933;-80
2024/01/03 13:34:34;;;;;;;22.50;21.03;;;;;;;;;;5011528;28;20843;-79
2024/01/03 13:37:01;;;;;;;21.60;20.30;;;;;;;;;;5016855;28;20489;-79
2024/01/03 13:39:29;;;;;;;24.47;22.63;;;;;;;;;;5027083;28;20484;-80
2024/01/03 13:41:56;;;;;;;22.73;20.60;;;;;;;;;;5000250;28;20995;-79
2024/01/03 13:44:23;;;;;;;22.73;21.53;;;;;;;;;;4999226;28;20453;-79
2024/01/03 13:46:53;;;;;;;22.70;21.13;;;;;;;;;;5029314;28;20460;-77
2024/01/03 13:49:20;;;;;;;23.63;22.03;;;;;;;;;;5003896;28;20547;-83
2024/01/03 13:51:48;;;;;;;22.80;21.50;;;;;;;;;;5014181;28;20794;-75
2024/01/03 13:54:15;;;;;;;24.77;22.53;;;;;;;;;;5011555;28;20472;-74
2024/01/03 13:56:42;;;;;;;25.07;23.47;;;;;;;;;;5011505;28;20450;-75
2024/01/03 13:59:10;;;;;;;27.03;24.40;;;;;;;;;;5011477;28;20488;-74
2024/01/03 14:01:37;;;;;;;24.33;22.70;;;;;;;;;;5013452;28;20460;-81
2024/01/03 14:04:05;;;;;;;23.77;22.23;;;;;;;;;;5023137;28;21379;-82
2024/01/03 14:06:32;;;;;;;23.33;22.03;;;;;;;;;;5022419;28;20454;-80
2024/01/03 14:08:59;;;;;;;23.87;21.80;;;;;;;;;;5008321;28;20465;-74
2024/01/03 14:11:26;;;;;;;23.50;21.67;;;;;;;;;;5010186;28;20457;-74
2024/01/03 14:13:53;;;;;;;22.40;21.40;;;;;;;;;;5010842;28;20469;-74
2024/01/03 14:16:20;;;;;;;24.90;22.80;;;;;;;;;;5010955;28;20539;-73
2024/01/03 14:18:47;;;;;;;23.50;21.70;;;;;;;;;;5010308;28;20530;-73
2024/01/03 14:21:15;;;;;;;23.27;21.40;;;;;;;;;;5010379;28;20449;-73
2024/01/03 14:23:42;;;;;;;20.33;18.97;;;;;;;;;;5010562;28;20448;-73